PHLI METAR and TAF | Updated Today

PHLI METAR

Lihue Airport

Observation time: 44 min. ago

PHLI 061853Z 05015KT 10SM FEW017 SCT027 SCT040 25/21 A3022 RMK AO2 RAB02E12 SLP230 P0000 T02500211 $

Need help? Read our tutorial on how to read METARs or read the parsed version below.

Lihue Airport (PHLI) METAR

  • Weather conditions on Mon, 06 Feb 2023 18:53:00 +0000 (44 min. ago):
  • Present conditions: Dry
  • Clouds: A few at 518 meters; scattered at 823 meters; scattered at 1219 meters
  • Visibility: 16093 meters
  • Wind: 50 degrees at 15 knots
  • Temperature: 25 celsius
  • Dew point: 21 celsius
  • Pressure: 30.22 inHg
  • Remarks: AO2 RAB02E12 SLP230 P0000 T02500211 $


Useful to know...

PHLI TAF

Lihue Airport

PHLI 061731Z 0618/0718 05014KT P6SM FEW025 SCT040 FM071200 05012KT P6SM VCSH SCT025 BKN040
Observation time: 2:06 hr. ago
Need help? Read our tutorial on how to read TAFs or read the parsed version below.

Parsed version of TAF for Lihue Airport (PHLI)

  • From 06 February at 18:00 UTC, to day 07 of the month at 18:00 UTC
  • Clouds: A few at 762 meters; scattered at 1219 meters
  • Wind: 50 degrees at 14
  • From day 7 of the month at 12:00 UTC
  • Clouds: Scattered at 762 meters; broken sky at 1219 meters
  • Wind: 50 degrees at 12
  • Other: In the vicinity, showers of